This is the latest recevied weather packets stored in our database for station/object VK4JLM-1. If no packets are shown the sender has not sent any weather packets the latest 10 day(s).
| Time | Temp. | Humidity | Pressure | Rain* | Wind** | Luminosity | Snow |
|---|---|---|---|---|---|---|---|
| 1777771327 | 27.78° C | 64% | 1023 hPa | 0 mm | - | - | - |
| 1777770208 | 27.22° C | 64% | 1023.2 hPa | 0 mm | - | - | - |
| 1777769101 | 29.44° C | 58% | 1023.5 hPa | 0 mm | - | - | - |
| 1777768021 | 30° C | 57% | 1023.6 hPa | 0 mm | - | - | - |
| 1777766856 | 30° C | 57% | 1023.9 hPa | 0 mm | - | - | - |
| 1777765808 | 27.22° C | 62% | 1024.1 hPa | 0 mm | - | - | - |
| 1777764686 | 29.44° C | 56% | 1024.1 hPa | 0 mm | - | - | - |
| 1777763551 | 28.89° C | 56% | 1024.3 hPa | 0 mm | - | - | - |
| 1777762411 | 27.78° C | 59% | 1024.2 hPa | 0 mm | - | - | - |
| 1777761346 | 27.78° C | 56% | 1024.1 hPa | 0 mm | - | - | - |
| 1777760296 | 25° C | 62% | 1024 hPa | 0 mm | - | - | - |
| 1777759216 | 24.44° C | 64% | 1023.9 hPa | 0.25 mm | - | - | - |
| 1777758066 | 20.56° C | 76% | 1023.8 hPa | 0.25 mm | - | - | - |
| 1777756871 | 18.33° C | 86% | 1023.7 hPa | 0.25 mm | - | - | - |
| 1777755796 | 17.22° C | 90% | 1023.6 hPa | 0 mm | - | - | - |
| 1777754681 | 16.67° C | 93% | 1023.4 hPa | 0 mm | - | - | - |
| 1777753491 | 16.11° C | 96% | 1023.3 hPa | 0 mm | - | - | - |
| 1777751236 | 15.56° C | 98% | 1022.9 hPa | 0 mm | - | - | - |
| 1777750276 | 16.11° C | 97% | 1022.9 hPa | 0 mm | - | - | - |
| 1777749168 | 15.56° C | 99% | 1022.9 hPa | 0 mm | - | - | - |
| 1777748056 | 15.56° C | 99% | 1022.6 hPa | 0 mm | - | - | - |
| 1777747076 | 16.11° C | 97% | 1022.6 hPa | 0 mm | - | - | - |
| 1777745921 | 16.11° C | 96% | 1022.7 hPa | 0 mm | - | - | - |
| 1777744846 | 16.11° C | 97% | 1022.7 hPa | 0 mm | - | - | - |
| 1777743846 | 16.11° C | 97% | 1022.6 hPa | 0 mm | - | - | - |
* Rain latest hour (hover to see other rain measurements)
** Current wind speed in m/s (hover to see current wind gust speed)